VQTMJ87 KLAX-KLAS
Flight info
| Callsign | VQTMJ87 |
|---|---|
| Flight time | N/A |
| Altitude | 21000 |
| Route | SKWRL2 DAG CRESO5 |
| Aircraft | BE9L/L-VGD/C |
Departure
| Time | 2026-04-22 01:12 |
|---|---|
| Airport | Los Angeles International Airport (KLAX) |
Arrival
| Time | N/A |
|---|---|
| Airport | Harry Reid International Airport (KLAS) |
| Time | Latitude | Longitude | Altitude | Speed | Heading |
|---|---|---|---|---|---|
| 2026-04-22 00:50 | 33.94305 | -118.38419 | 121 ft | 0 kts | 314° |
| 2026-04-22 01:07 | 33.94302 | -118.38436 | 118 ft | 2 kts | 194° |
| 2026-04-22 01:07 | 33.94284 | -118.38404 | 119 ft | 0 kts | 111° |
| 2026-04-22 01:07 | 33.94275 | -118.38385 | 120 ft | 10 kts | 122° |
| 2026-04-22 01:07 | 33.94199 | -118.38338 | 121 ft | 12 kts | 176° |
| 2026-04-22 01:08 | 33.94085 | -118.38338 | 118 ft | 11 kts | 140° |
| 2026-04-22 01:08 | 33.94060 | -118.38232 | 121 ft | 19 kts | 83° |
| 2026-04-22 01:08 | 33.94079 | -118.38092 | 121 ft | 2 kts | 77° |
| 2026-04-22 01:08 | 33.94081 | -118.38012 | 118 ft | 13 kts | 136° |
| 2026-04-22 01:09 | 33.94071 | -118.38005 | 120 ft | 0 kts | 166° |
| 2026-04-22 01:10 | 33.94018 | -118.38000 | 121 ft | 22 kts | 188° |
| 2026-04-22 01:10 | 33.93983 | -118.38055 | 120 ft | 0 kts | 264° |
| 2026-04-22 01:10 | 33.93974 | -118.38122 | 121 ft | 31 kts | 260° |
| 2026-04-22 01:11 | 33.93922 | -118.38618 | 121 ft | 87 kts | 263° |
| 2026-04-22 01:11 | 33.93824 | -118.39513 | 161 ft | 123 kts | 259° |
| 2026-04-22 01:11 | 33.93659 | -118.40574 | 417 ft | 134 kts | 253° |
| 2026-04-22 01:11 | 33.93437 | -118.41707 | 689 ft | 142 kts | 257° |
| 2026-04-22 01:12 | 33.93214 | -118.42873 | 1042 ft | 144 kts | 255° |
| 2026-04-22 01:12 | 33.92964 | -118.44064 | 1397 ft | 148 kts | 256° |
| 2026-04-22 01:12 | 33.92692 | -118.45278 | 1749 ft | 150 kts | 255° |
| 2026-04-22 01:12 | 33.92414 | -118.46474 | 2090 ft | 150 kts | 254° |
| 2026-04-22 01:13 | 33.92119 | -118.47681 | 2438 ft | 150 kts | 253° |
| 2026-04-22 01:13 | 33.91809 | -118.48885 | 2795 ft | 150 kts | 253° |
| 2026-04-22 01:13 | 33.91566 | -118.50094 | 3135 ft | 150 kts | 254° |
| 2026-04-22 01:13 | 33.91252 | -118.51296 | 3489 ft | 151 kts | 253° |
| 2026-04-22 01:14 | 33.90941 | -118.52505 | 3844 ft | 152 kts | 253° |
| 2026-04-22 01:14 | 33.90618 | -118.53724 | 4190 ft | 152 kts | 253° |
| 2026-04-22 01:14 | 33.90309 | -118.54934 | 4541 ft | 152 kts | 254° |
| 2026-04-22 01:14 | 33.90357 | -118.56163 | 4921 ft | 151 kts | 289° |
| 2026-04-22 01:15 | 33.90872 | -118.57286 | 5262 ft | 157 kts | 307° |
| 2026-04-22 01:15 | 33.91760 | -118.58085 | 5613 ft | 165 kts | 330° |
| 2026-04-22 01:15 | 33.92907 | -118.58374 | 5976 ft | 173 kts | 356° |
| 2026-04-22 01:15 | 33.94109 | -118.58300 | 6334 ft | 175 kts | 357° |
| 2026-04-22 01:16 | 33.95333 | -118.58262 | 6682 ft | 176 kts | 356° |
| 2026-04-22 01:16 | 33.96576 | -118.58218 | 7028 ft | 178 kts | 356° |
| 2026-04-22 01:16 | 33.97822 | -118.58171 | 7372 ft | 180 kts | 355° |
| 2026-04-22 01:16 | 33.99066 | -118.58127 | 7712 ft | 182 kts | 355° |
| 2026-04-22 01:17 | 34.00341 | -118.58083 | 8062 ft | 184 kts | 355° |
| 2026-04-22 01:17 | 34.01633 | -118.58038 | 8416 ft | 186 kts | 354° |
| 2026-04-22 01:17 | 34.02937 | -118.57995 | 8772 ft | 188 kts | 353° |
| 2026-04-22 01:17 | 34.04259 | -118.57950 | 9143 ft | 191 kts | 354° |
| 2026-04-22 01:18 | 34.05587 | -118.57877 | 9508 ft | 197 kts | 1° |
| 2026-04-22 01:18 | 34.06879 | -118.57186 | 9884 ft | 209 kts | 27° |
| 2026-04-22 01:18 | 34.08149 | -118.56312 | 10228 ft | 211 kts | 22° |
| 2026-04-22 01:18 | 34.09452 | -118.55460 | 10561 ft | 214 kts | 23° |
| 2026-04-22 01:19 | 34.10761 | -118.54583 | 10866 ft | 215 kts | 23° |
| 2026-04-22 01:19 | 34.12073 | -118.53694 | 11212 ft | 216 kts | 23° |
| 2026-04-22 01:19 | 34.13374 | -118.52815 | 11550 ft | 217 kts | 22° |
| 2026-04-22 01:19 | 34.14698 | -118.51932 | 11899 ft | 218 kts | 22° |
| 2026-04-22 01:20 | 34.16025 | -118.51033 | 12246 ft | 220 kts | 22° |
| 2026-04-22 01:20 | 34.17370 | -118.50126 | 12605 ft | 221 kts | 21° |
| 2026-04-22 01:20 | 34.18725 | -118.49218 | 12961 ft | 223 kts | 21° |
| 2026-04-22 01:20 | 34.20078 | -118.48304 | 13321 ft | 226 kts | 21° |
| 2026-04-22 01:21 | 34.21460 | -118.47371 | 13694 ft | 228 kts | 20° |
| 2026-04-22 01:21 | 34.22857 | -118.46441 | 14043 ft | 230 kts | 20° |
| 2026-04-22 01:21 | 34.24258 | -118.45490 | 14398 ft | 228 kts | 20° |
| 2026-04-22 01:21 | 34.25659 | -118.44684 | 14728 ft | 219 kts | 12° |
| 2026-04-22 01:22 | 34.27033 | -118.43924 | 15055 ft | 220 kts | 15° |
| 2026-04-22 01:22 | 34.28418 | -118.43130 | 15392 ft | 219 kts | 13° |
| 2026-04-22 01:22 | 34.29809 | -118.42367 | 15737 ft | 219 kts | 13° |
| 2026-04-22 01:22 | 34.31183 | -118.41610 | 16070 ft | 220 kts | 12° |
| 2026-04-22 01:23 | 34.32579 | -118.40834 | 16419 ft | 220 kts | 12° |
| 2026-04-22 01:23 | 34.33974 | -118.40064 | 16760 ft | 219 kts | 11° |
| 2026-04-22 01:23 | 34.35359 | -118.39300 | 17108 ft | 218 kts | 11° |
| 2026-04-22 01:23 | 34.36731 | -118.38540 | 17482 ft | 217 kts | 11° |
| 2026-04-22 01:24 | 34.38096 | -118.37784 | 17830 ft | 220 kts | 11° |
| 2026-04-22 01:24 | 34.39491 | -118.37010 | 18203 ft | 221 kts | 10° |
| 2026-04-22 01:24 | 34.40896 | -118.36232 | 18547 ft | 223 kts | 10° |
| 2026-04-22 01:24 | 34.41837 | -118.35709 | 18757 ft | 223 kts | 10° |
| 2026-04-22 01:25 | 34.43707 | -118.34671 | 19185 ft | 222 kts | 9° |
| 2026-04-22 01:25 | 34.44659 | -118.34144 | 19406 ft | 222 kts | 9° |
| 2026-04-22 01:25 | 34.45998 | -118.33157 | 19733 ft | 237 kts | 40° |
| 2026-04-22 01:25 | 34.46822 | -118.31407 | 20080 ft | 246 kts | 72° |
| 2026-04-22 01:26 | 34.47295 | -118.29394 | 20401 ft | 248 kts | 75° |
| 2026-04-22 01:26 | 34.47744 | -118.27370 | 20739 ft | 249 kts | 75° |
| 2026-04-22 01:26 | 34.48209 | -118.25318 | 20997 ft | 257 kts | 75° |
| 2026-04-22 01:26 | 34.48709 | -118.23144 | 21067 ft | 276 kts | 75° |
| 2026-04-22 01:27 | 34.49228 | -118.20857 | 21094 ft | 292 kts | 75° |
| 2026-04-22 01:27 | 34.49783 | -118.18422 | 21095 ft | 304 kts | 75° |
| 2026-04-22 01:27 | 34.50368 | -118.15920 | 21088 ft | 312 kts | 74° |
| 2026-04-22 01:27 | 34.50959 | -118.13379 | 21089 ft | 315 kts | 75° |
| 2026-04-22 01:28 | 34.51530 | -118.10813 | 21092 ft | 317 kts | 75° |
| 2026-04-22 01:28 | 34.52124 | -118.08217 | 21089 ft | 318 kts | 75° |
| 2026-04-22 01:28 | 34.52723 | -118.05619 | 21092 ft | 320 kts | 75° |
| 2026-04-22 01:28 | 34.53317 | -118.03003 | 21088 ft | 321 kts | 75° |
| 2026-04-22 01:29 | 34.53911 | -118.00423 | 21093 ft | 322 kts | 75° |
| 2026-04-22 01:29 | 34.54510 | -117.97809 | 21086 ft | 322 kts | 75° |
| 2026-04-22 01:29 | 34.55099 | -117.95182 | 21087 ft | 322 kts | 76° |
| 2026-04-22 01:29 | 34.55694 | -117.92550 | 21085 ft | 322 kts | 75° |
| 2026-04-22 01:30 | 34.56291 | -117.89927 | 21084 ft | 322 kts | 75° |
| 2026-04-22 01:30 | 34.56882 | -117.87329 | 21079 ft | 322 kts | 75° |
| 2026-04-22 01:30 | 34.57477 | -117.84709 | 21065 ft | 322 kts | 75° |
| 2026-04-22 01:30 | 34.58071 | -117.82082 | 21061 ft | 322 kts | 76° |
| 2026-04-22 01:31 | 34.58655 | -117.79488 | 21064 ft | 322 kts | 76° |
| 2026-04-22 01:31 | 34.59247 | -117.76876 | 21050 ft | 322 kts | 76° |
| 2026-04-22 01:31 | 34.59817 | -117.74243 | 21046 ft | 320 kts | 81° |
| 2026-04-22 01:31 | 34.60274 | -117.71599 | 21046 ft | 321 kts | 78° |
| 2026-04-22 01:32 | 34.60832 | -117.68977 | 21047 ft | 321 kts | 77° |
| 2026-04-22 01:32 | 34.61370 | -117.66341 | 21056 ft | 320 kts | 78° |
| 2026-04-22 01:32 | 34.61858 | -117.63700 | 21058 ft | 320 kts | 79° |
| 2026-04-22 01:32 | 34.62345 | -117.61083 | 21058 ft | 320 kts | 78° |
| 2026-04-22 01:33 | 34.62857 | -117.58443 | 21071 ft | 320 kts | 78° |
| 2026-04-22 01:33 | 34.63365 | -117.55816 | 21065 ft | 320 kts | 78° |
| 2026-04-22 01:33 | 34.63866 | -117.53180 | 21082 ft | 320 kts | 79° |
| 2026-04-22 01:33 | 34.64369 | -117.50540 | 21083 ft | 320 kts | 79° |
| 2026-04-22 01:34 | 34.64868 | -117.47913 | 21088 ft | 320 kts | 79° |
| 2026-04-22 01:34 | 34.65367 | -117.45306 | 21078 ft | 320 kts | 78° |
| 2026-04-22 01:34 | 34.65866 | -117.42675 | 21086 ft | 319 kts | 79° |
| 2026-04-22 01:34 | 34.66355 | -117.40045 | 21086 ft | 319 kts | 79° |
| 2026-04-22 01:35 | 34.66858 | -117.37409 | 21084 ft | 319 kts | 79° |
| 2026-04-22 01:35 | 34.67359 | -117.34791 | 21083 ft | 318 kts | 79° |
| 2026-04-22 01:35 | 34.67854 | -117.32168 | 21083 ft | 318 kts | 79° |
| 2026-04-22 01:35 | 34.68349 | -117.29537 | 21075 ft | 319 kts | 79° |
| 2026-04-22 01:36 | 34.68837 | -117.26946 | 21063 ft | 319 kts | 79° |
| 2026-04-22 01:36 | 34.69333 | -117.24317 | 21056 ft | 318 kts | 79° |
| 2026-04-22 01:36 | 34.69826 | -117.21695 | 21049 ft | 317 kts | 79° |
| 2026-04-22 01:36 | 34.70316 | -117.19081 | 21042 ft | 317 kts | 79° |
| 2026-04-22 01:37 | 34.70808 | -117.16459 | 21027 ft | 317 kts | 79° |
| 2026-04-22 01:37 | 34.71296 | -117.13860 | 21027 ft | 316 kts | 79° |
| 2026-04-22 01:37 | 34.71780 | -117.11274 | 21013 ft | 316 kts | 79° |
| 2026-04-22 01:37 | 34.72266 | -117.08666 | 21002 ft | 316 kts | 79° |
| 2026-04-22 01:38 | 34.72754 | -117.06055 | 20979 ft | 316 kts | 80° |
| 2026-04-22 01:38 | 34.73239 | -117.03448 | 20975 ft | 315 kts | 79° |
| 2026-04-22 01:38 | 34.73723 | -117.00851 | 20978 ft | 315 kts | 80° |
| 2026-04-22 01:38 | 34.74202 | -116.98271 | 20978 ft | 315 kts | 80° |
| 2026-04-22 01:39 | 34.74684 | -116.95678 | 20981 ft | 315 kts | 80° |
| 2026-04-22 01:39 | 34.75167 | -116.93073 | 20981 ft | 314 kts | 80° |